Time;durP1;ratioP1;P1;durP2;ratioP2;P2;SDS_P1;SDS_P2;PMS_P1;PMS_P2;Temp;Humidity;BMP_temperature;BMP_pressure;BME280_temperature;BME280_humidity;BME280_pressure;Samples;Min_cycle;Max_cycle;Signal;HPM_P1;HPM_P2
2022/07/01 00:02:08;;;;;;;25.17;19.30;;;14.20;99.90;;;;;;7342782;32;20127;-60
2022/07/01 00:06:15;;;;;;;22.08;18.27;;;14.20;99.90;;;;;;7348760;32;20123;-60
2022/07/01 00:10:17;;;;;;;21.90;18.37;;;14.10;99.90;;;;;;7340776;32;20415;-60
2022/07/01 00:14:19;;;;;;;19.35;16.42;;;14.10;99.90;;;;;;7338655;32;20645;-60
2022/07/01 00:18:23;;;;;;;17.48;14.05;;;14.10;99.90;;;;;;7343211;32;20119;-61
2022/07/01 00:22:27;;;;;;;16.45;14.40;;;14.00;99.90;;;;;;7343353;32;20230;-60
2022/07/01 00:26:29;;;;;;;19.65;14.60;;;14.00;99.90;;;;;;7346355;32;20127;-60
2022/07/01 00:30:31;;;;;;;15.05;12.80;;;13.90;99.90;;;;;;7343989;32;20151;-60
2022/07/01 00:34:33;;;;;;;14.18;10.88;;;14.00;99.90;;;;;;7340059;32;20233;-61
2022/07/01 00:38:35;;;;;;;12.73;10.80;;;14.00;99.90;;;;;;7345598;32;20186;-61
2022/07/01 00:42:40;;;;;;;13.77;10.73;;;13.90;99.90;;;;;;7340838;32;20270;-60
2022/07/01 00:46:42;;;;;;;11.48;9.85;;;13.90;99.90;;;;;;7340450;32;20598;-60
2022/07/01 00:50:45;;;;;;;13.27;9.38;;;13.90;99.90;;;;;;7339059;32;20174;-61
2022/07/01 00:54:47;;;;;;;11.57;9.45;;;13.90;99.90;;;;;;7335588;32;20205;-60
2022/07/01 00:58:49;;;;;;;10.82;9.32;;;13.90;99.90;;;;;;7344628;32;20154;-61
2022/07/01 01:02:50;;;;;;;12.60;8.88;;;13.90;99.90;;;;;;7338133;32;20175;-60
2022/07/01 01:06:52;;;;;;;10.98;8.70;;;13.90;99.90;;;;;;7342169;32;20115;-60
2022/07/01 01:10:55;;;;;;;12.90;9.85;;;13.90;99.90;;;;;;7341514;32;20120;-60
2022/07/01 01:14:57;;;;;;;10.00;8.20;;;13.90;99.90;;;;;;7341508;32;20186;-61
2022/07/01 01:18:58;;;;;;;10.77;8.55;;;13.90;99.90;;;;;;7335527;32;20256;-60
2022/07/01 01:23:01;;;;;;;9.27;8.10;;;14.00;99.90;;;;;;7343120;32;20171;-60
2022/07/01 01:27:07;;;;;;;11.32;7.03;;;13.90;99.90;;;;;;7341212;32;20172;-60
2022/07/01 01:31:08;;;;;;;10.40;7.40;;;13.90;99.90;;;;;;7336897;32;20119;-61
2022/07/01 01:35:10;;;;;;;10.38;7.22;;;13.90;99.90;;;;;;7338759;32;20203;-60
2022/07/01 01:43:17;;;;;;;10.23;6.72;;;13.80;99.90;;;;;;7338671;32;20259;-60
2022/07/01 01:47:18;;;;;;;12.23;6.82;;;13.80;99.90;;;;;;7339411;32;20837;-60
2022/07/01 01:51:20;;;;;;;9.57;7.40;;;13.80;99.90;;;;;;7336644;32;20576;-60
2022/07/01 01:55:22;;;;;;;11.60;7.12;;;13.80;99.90;;;;;;7346522;32;20227;-60
2022/07/01 01:59:24;;;;;;;13.50;7.20;;;13.90;99.90;;;;;;7336025;32;20230;-60
2022/07/01 02:03:26;;;;;;;11.90;6.62;;;13.80;99.90;;;;;;7344804;32;20452;-60
2022/07/01 02:07:28;;;;;;;13.07;7.82;;;13.80;99.90;;;;;;7344202;32;20147;-60
2022/07/01 02:11:30;;;;;;;14.68;8.32;;;13.90;99.90;;;;;;7337612;32;20581;-60
2022/07/01 02:15:32;;;;;;;13.77;9.30;;;13.80;99.90;;;;;;7346160;32;20218;-60
2022/07/01 02:19:34;;;;;;;18.85;10.48;;;13.90;99.90;;;;;;7344553;32;20112;-62
2022/07/01 02:23:36;;;;;;;17.35;9.73;;;13.80;99.90;;;;;;7345306;32;20489;-60
2022/07/01 02:27:38;;;;;;;18.10;11.07;;;13.90;99.90;;;;;;7335880;32;20288;-60
2022/07/01 02:31:39;;;;;;;18.48;11.57;;;13.80;99.90;;;;;;7346452;32;20123;-59
2022/07/01 02:35:41;;;;;;;18.42;12.13;;;13.90;99.90;;;;;;7334226;32;20119;-60
2022/07/01 02:39:49;;;;;;;20.55;12.68;;;13.90;99.90;;;;;;7341857;32;20151;-59
2022/07/01 02:43:51;;;;;;;22.33;13.40;;;13.80;99.90;;;;;;7341730;32;20613;-59
2022/07/01 02:47:52;;;;;;;20.15;12.63;;;13.80;99.90;;;;;;7346401;32;20216;-60
2022/07/01 02:51:54;;;;;;;20.62;12.05;;;13.80;99.90;;;;;;7346111;32;20115;-60
2022/07/01 02:55:56;;;;;;;18.00;12.32;;;13.80;99.90;;;;;;7333848;32;20266;-58
2022/07/01 02:59:59;;;;;;;16.23;11.02;;;13.90;99.90;;;;;;7342395;32;20322;-58
2022/07/01 03:04:01;;;;;;;16.73;11.80;;;13.90;99.90;;;;;;7338019;32;20187;-58
2022/07/01 03:08:03;;;;;;;18.35;10.93;;;13.80;99.90;;;;;;7340071;32;20309;-58
2022/07/01 03:12:24;;;;;;;16.83;11.23;;;13.80;99.90;;;;;;7348038;32;20107;-58
2022/07/01 03:16:26;;;;;;;13.15;10.32;;;13.80;99.90;;;;;;7339655;32;20577;-58
2022/07/01 03:20:28;;;;;;;13.98;10.25;;;13.80;99.90;;;;;;7336615;32;20267;-58
2022/07/01 03:24:30;;;;;;;20.48;11.30;;;13.80;99.90;;;;;;7348447;32;20143;-58
2022/07/01 03:28:33;;;;;;;17.95;11.05;;;13.70;99.90;;;;;;7338467;32;20366;-58
2022/07/01 03:32:35;;;;;;;18.00;11.60;;;13.70;99.90;;;;;;7343059;32;20115;-61
2022/07/01 03:36:37;;;;;;;18.08;10.85;;;13.80;99.90;;;;;;7340382;32;20226;-58
2022/07/01 03:40:39;;;;;;;17.95;11.38;;;13.80;99.90;;;;;;7337677;32;20639;-58
2022/07/01 03:44:41;;;;;;;16.15;11.05;;;13.80;99.90;;;;;;7339100;32;20139;-58
2022/07/01 03:48:43;;;;;;;15.80;11.25;;;13.80;99.90;;;;;;7339071;32;20750;-58
2022/07/01 03:52:44;;;;;;;15.10;10.73;;;13.70;99.90;;;;;;7334442;32;20284;-59
2022/07/01 03:56:46;;;;;;;13.13;9.25;;;13.80;99.90;;;;;;7336920;32;20786;-59
2022/07/01 04:00:48;;;;;;;15.82;9.02;;;13.80;99.90;;;;;;7339720;32;20306;-60
2022/07/01 04:04:50;;;;;;;15.80;8.88;;;13.80;99.90;;;;;;7347637;32;20119;-59
2022/07/01 04:08:52;;;;;;;12.02;8.35;;;13.80;99.90;;;;;;7341788;32;20200;-59
2022/07/01 04:12:54;;;;;;;11.73;8.48;;;13.90;99.90;;;;;;7342336;32;20258;-59
2022/07/01 04:17:16;;;;;;;15.80;8.60;;;13.90;99.90;;;;;;7339751;32;20144;-59
2022/07/01 04:25:38;;;;;;;15.45;8.07;;;13.90;99.90;;;;;;7339927;32;20409;-60
2022/07/01 04:29:40;;;;;;;10.25;7.32;;;14.00;99.90;;;;;;7339476;32;20397;-59
2022/07/01 04:33:42;;;;;;;12.75;7.57;;;14.00;99.90;;;;;;7342930;32;20516;-60
2022/07/01 04:37:44;;;;;;;11.88;7.07;;;14.00;99.90;;;;;;7341859;32;20193;-59
2022/07/01 04:42:01;;;;;;;12.82;7.20;;;13.90;99.90;;;;;;7339959;32;20340;-60
2022/07/01 04:46:03;;;;;;;10.60;6.90;;;14.00;99.90;;;;;;7339493;32;20188;-64
2022/07/01 04:50:05;;;;;;;8.30;6.00;;;14.00;99.90;;;;;;7335579;32;20115;-63
2022/07/01 04:54:08;;;;;;;7.68;5.70;;;14.00;99.90;;;;;;7345450;32;20660;-62
2022/07/01 04:58:12;;;;;;;9.40;6.03;;;14.00;99.90;;;;;;7337684;32;20228;-62
2022/07/01 05:02:13;;;;;;;8.35;4.87;;;14.10;99.90;;;;;;7326192;32;20249;-63
2022/07/01 05:06:15;;;;;;;8.07;5.18;;;14.10;99.90;;;;;;7333236;32;20217;-63
2022/07/01 05:10:17;;;;;;;13.45;4.82;;;14.10;99.90;;;;;;7338725;32;20131;-62
2022/07/01 05:14:19;;;;;;;6.60;4.60;;;14.10;99.90;;;;;;7342567;32;20277;-62
2022/07/01 05:22:41;;;;;;;8.90;4.82;;;14.20;99.90;;;;;;7340125;32;20174;-62
2022/07/01 05:26:43;;;;;;;8.43;4.45;;;14.10;99.90;;;;;;7340345;32;20224;-63
2022/07/01 05:30:44;;;;;;;9.20;4.97;;;14.20;99.90;;;;;;7339955;32;20152;-62
2022/07/01 05:34:46;;;;;;;10.32;4.65;;;14.20;99.90;;;;;;7336973;32;20123;-62
2022/07/01 05:38:48;;;;;;;6.50;4.62;;;14.10;99.90;;;;;;7334287;32;20104;-62
2022/07/01 05:42:50;;;;;;;7.45;4.57;;;14.10;99.90;;;;;;7335385;32;20138;-62
2022/07/01 05:46:52;;;;;;;10.70;4.85;;;14.10;99.90;;;;;;7334709;32;20115;-62
2022/07/01 05:50:54;;;;;;;8.43;4.68;;;14.10;99.90;;;;;;7330170;32;20131;-63
2022/07/01 05:54:55;;;;;;;10.07;4.62;;;14.20;99.90;;;;;;7341748;32;20146;-62
2022/07/01 05:58:57;;;;;;;13.23;5.12;;;14.20;99.90;;;;;;7340856;32;20123;-64
2022/07/01 06:02:59;;;;;;;8.10;4.82;;;14.30;99.90;;;;;;7334561;32;20350;-63
2022/07/01 06:07:03;;;;;;;11.43;5.62;;;14.40;99.90;;;;;;7336153;32;20196;-64
2022/07/01 06:11:04;;;;;;;8.85;4.87;;;14.50;99.90;;;;;;7339600;32;20127;-64
2022/07/01 06:15:08;;;;;;;11.38;5.70;;;14.60;99.90;;;;;;7342848;32;20556;-63
2022/07/01 06:19:10;;;;;;;10.02;5.62;;;14.70;99.90;;;;;;7337429;32;20214;-62
2022/07/01 06:23:12;;;;;;;9.98;6.00;;;14.80;99.90;;;;;;7341513;32;20183;-62
2022/07/01 06:27:14;;;;;;;8.63;5.47;;;14.80;99.90;;;;;;7330682;32;20230;-64
2022/07/01 06:31:16;;;;;;;12.73;6.50;;;14.80;99.90;;;;;;7344149;32;20212;-62
2022/07/01 06:35:18;;;;;;;7.80;5.82;;;14.80;99.90;;;;;;7339799;32;20142;-63
2022/07/01 06:39:19;;;;;;;12.52;5.62;;;14.90;99.90;;;;;;7344227;32;20386;-62
2022/07/01 06:43:21;;;;;;;14.32;5.47;;;14.90;99.90;;;;;;7346032;32;20163;-62
2022/07/01 06:47:28;;;;;;;9.32;5.90;;;15.10;99.90;;;;;;7343431;32;20123;-61
2022/07/01 06:51:30;;;;;;;10.55;4.97;;;15.10;99.90;;;;;;7344540;32;20135;-62
2022/07/01 06:55:32;;;;;;;9.50;5.47;;;15.20;99.90;;;;;;7342709;32;20363;-62
2022/07/01 06:59:34;;;;;;;9.50;5.40;;;15.30;99.90;;;;;;7340576;32;20127;-64
2022/07/01 07:03:36;;;;;;;8.02;5.20;;;15.40;99.90;;;;;;7344057;32;20123;-63
2022/07/01 07:07:38;;;;;;;8.15;4.55;;;15.50;99.90;;;;;;7340172;32;20138;-63
2022/07/01 07:11:47;;;;;;;5.47;4.10;;;15.60;99.90;;;;;;7343274;32;20236;-61
2022/07/01 07:15:49;;;;;;;9.60;4.05;;;15.60;99.90;;;;;;7342313;32;20232;-63
2022/07/01 07:19:51;;;;;;;8.75;4.53;;;15.60;99.90;;;;;;7341066;32;20475;-62
2022/07/01 07:23:53;;;;;;;14.15;4.35;;;15.70;99.90;;;;;;7338668;32;20103;-62
2022/07/01 07:27:55;;;;;;;8.27;4.47;;;15.70;99.90;;;;;;7342757;32;20210;-63
2022/07/01 07:31:57;;;;;;;8.02;3.85;;;15.70;99.90;;;;;;7339406;32;20136;-62
2022/07/01 07:35:58;;;;;;;7.05;4.78;;;15.80;99.90;;;;;;7339993;32;20125;-62
2022/07/01 07:40:03;;;;;;;8.15;4.95;;;15.80;99.90;;;;;;7343455;32;20148;-65
2022/07/01 07:44:05;;;;;;;9.38;5.18;;;15.80;99.90;;;;;;7346993;32;21013;-62
2022/07/01 07:48:08;;;;;;;6.97;4.60;;;16.00;99.90;;;;;;7340650;32;20190;-65
2022/07/01 07:52:10;;;;;;;7.07;4.18;;;16.20;99.90;;;;;;7344289;32;20552;-63
2022/07/01 07:56:12;;;;;;;6.10;3.60;;;16.30;99.90;;;;;;7342835;32;20120;-62
2022/07/01 08:00:14;;;;;;;7.97;4.00;;;16.10;99.90;;;;;;7334187;32;20510;-64
2022/07/01 08:04:15;;;;;;;6.00;3.97;;;16.10;99.90;;;;;;7338344;32;20359;-63
2022/07/01 08:08:17;;;;;;;3.65;3.00;;;16.00;99.90;;;;;;7340272;32;20245;-63
2022/07/01 08:12:26;;;;;;;4.47;2.72;;;16.70;99.90;;;;;;7339500;32;20138;-64
2022/07/01 08:16:28;;;;;;;5.32;2.80;;;17.70;99.90;;;;;;7340748;32;20115;-62
2022/07/01 08:20:30;;;;;;;9.38;3.10;;;18.40;99.90;;;;;;7337918;32;20582;-64
2022/07/01 08:24:32;;;;;;;4.07;2.40;;;19.20;99.90;;;;;;7336438;32;20170;-63
2022/07/01 08:28:33;;;;;;;3.70;2.37;;;19.70;99.90;;;;;;7339865;32;20131;-63
2022/07/01 08:32:35;;;;;;;7.85;3.08;;;19.10;99.90;;;;;;7342556;32;20107;-64
2022/07/01 08:36:37;;;;;;;6.12;3.17;;;18.30;99.90;;;;;;7340345;32;20158;-63
2022/07/01 08:40:40;;;;;;;5.72;2.80;;;17.70;99.90;;;;;;7340343;32;20158;-63
2022/07/01 08:44:42;;;;;;;5.55;2.78;;;17.30;99.90;;;;;;7342402;32;20699;-64
2022/07/01 08:48:44;;;;;;;8.38;3.40;;;17.50;99.90;;;;;;7330881;32;20424;-63
2022/07/01 08:52:46;;;;;;;8.85;2.85;;;18.10;99.90;;;;;;7331569;32;20103;-65
2022/07/01 08:56:48;;;;;;;5.05;2.20;;;19.20;99.90;;;;;;7348054;32;20187;-62
2022/07/01 09:00:50;;;;;;;6.65;2.20;;;20.30;99.90;;;;;;7338045;32;20311;-60
2022/07/01 09:05:05;;;;;;;5.18;2.53;;;20.90;99.90;;;;;;7339843;32;20156;-60
2022/07/01 09:09:20;;;;;;;5.80;2.00;;;21.20;99.90;;;;;;7345974;32;20587;-60
2022/07/01 09:13:21;;;;;;;3.28;1.58;;;20.60;99.90;;;;;;7344626;32;20179;-60
2022/07/01 09:17:23;;;;;;;5.18;1.48;;;19.80;99.90;;;;;;7340819;32;20195;-62
2022/07/01 09:21:29;;;;;;;6.60;1.90;;;19.30;99.90;;;;;;7344855;32;20647;-62
2022/07/01 09:25:39;;;;;;;4.22;1.65;;;19.10;99.90;;;;;;7339120;32;20157;-63
2022/07/01 09:29:52;;;;;;;3.10;1.60;;;19.10;99.90;;;;;;7340693;32;20696;-62
2022/07/01 09:34:10;;;;;;;4.50;1.73;;;18.80;99.90;;;;;;7341989;32;20176;-62
2022/07/01 09:38:13;;;;;;;;;;;18.70;99.90;;;;;;7329208;32;20324;-62
2022/07/01 09:42:45;;;;;;;3.00;1.12;;;18.60;99.90;;;;;;7336130;32;20500;-63
2022/07/01 09:46:57;;;;;;;4.00;1.58;;;18.50;99.90;;;;;;7336947;32;20443;-62
2022/07/01 09:51:03;;;;;;;2.70;1.10;;;18.30;99.90;;;;;;7335411;32;20107;-63
2022/07/01 09:55:07;;;;;;;2.73;0.90;;;18.70;99.90;;;;;;7339594;32;20557;-62
2022/07/01 09:59:09;;;;;;;2.67;0.80;;;19.10;99.90;;;;;;7341447;32;20288;-65
2022/07/01 10:03:12;;;;;;;4.35;0.90;;;19.60;99.90;;;;;;7342254;32;20128;-65
2022/07/01 10:07:50;;;;;;;2.20;0.80;;;19.30;99.90;;;;;;7341644;32;20797;-64
2022/07/01 10:12:16;;;;;;;6.28;1.00;;;19.30;99.90;;;;;;7285353;32;20156;-62
2022/07/01 10:16:20;;;;;;;2.35;0.90;;;19.40;99.90;;;;;;7336860;32;20314;-63
2022/07/01 10:20:28;;;;;;;3.05;1.42;;;19.50;99.90;;;;;;7346932;32;20502;-62
2022/07/01 10:24:30;;;;;;;3.03;1.10;;;19.90;99.90;;;;;;7346597;32;20190;-63
2022/07/01 10:28:39;;;;;;;3.83;1.08;;;20.00;99.90;;;;;;7341271;32;20673;-61
2022/07/01 10:32:48;;;;;;;2.58;0.80;;;20.30;99.90;;;;;;7338792;32;20248;-63
2022/07/01 10:37:10;;;;;;;4.68;0.80;;;21.10;99.90;;;;;;7342007;32;20111;-65
2022/07/01 10:41:22;;;;;;;;;;;22.40;99.90;;;;;;7343592;32;20201;-63
2022/07/01 10:45:24;;;;;;;2.72;0.80;;;22.60;99.90;;;;;;7342876;32;20159;-62
2022/07/01 10:49:41;;;;;;;3.92;0.90;;;22.10;99.90;;;;;;7341063;32;20129;-63
2022/07/01 10:53:47;;;;;;;2.72;0.70;;;21.80;99.90;;;;;;7339905;32;20140;-63
2022/07/01 10:57:56;;;;;;;3.28;0.80;;;22.10;99.90;;;;;;7339709;32;20137;-63
2022/07/01 11:01:57;;;;;;;5.05;0.98;;;22.10;99.90;;;;;;7339077;32;20229;-62
2022/07/01 11:05:59;;;;;;;4.62;1.00;;;22.30;99.90;;;;;;7337190;32;20155;-62
2022/07/01 11:10:03;;;;;;;4.85;1.20;;;22.10;99.90;;;;;;7334573;32;20295;-63
2022/07/01 11:14:06;;;;;;;2.35;1.00;;;22.60;99.90;;;;;;7342727;32;20502;-63
2022/07/01 11:18:08;;;;;;;5.35;1.33;;;22.00;99.90;;;;;;7342989;32;20168;-63
2022/07/01 11:22:09;;;;;;;4.60;1.10;;;22.10;99.90;;;;;;7349052;32;20200;-63
2022/07/01 11:26:22;;;;;;;2.58;0.80;;;22.30;99.90;;;;;;7337470;32;20246;-63
2022/07/01 11:30:24;;;;;;;5.12;1.02;;;22.30;99.90;;;;;;7339563;32;20678;-64
2022/07/01 11:34:28;;;;;;;3.67;0.80;;;22.30;99.90;;;;;;7344097;32;20111;-63
2022/07/01 11:42:55;;;;;;;3.03;0.90;;;21.90;99.90;;;;;;7344600;32;20246;-56
2022/07/01 11:46:57;;;;;;;3.17;0.90;;;22.30;99.90;;;;;;7337523;32;20128;-57
2022/07/01 11:51:00;;;;;;;2.72;0.98;;;22.10;99.90;;;;;;7336798;32;20182;-57
2022/07/01 11:55:02;;;;;;;2.90;0.80;;;22.10;99.90;;;;;;7332283;32;20150;-56
2022/07/01 11:59:24;;;;;;;2.97;0.60;;;22.40;99.90;;;;;;7338519;32;20158;-58
2022/07/01 12:03:30;;;;;;;1.80;0.60;;;21.90;99.90;;;;;;7335652;32;20108;-62
2022/07/01 12:07:32;;;;;;;1.92;0.55;;;21.80;99.90;;;;;;7338361;32;20194;-62
2022/07/01 12:11:34;;;;;;;3.05;0.65;;;22.20;99.90;;;;;;7332684;32;20114;-58
2022/07/01 12:15:40;;;;;;;1.40;0.50;;;21.90;99.90;;;;;;7336215;32;20318;-58
2022/07/01 12:19:44;;;;;;;1.50;0.70;;;21.50;99.90;;;;;;7335406;32;20172;-58
2022/07/01 12:24:12;;;;;;;4.40;0.65;;;21.70;99.90;;;;;;7328256;32;20172;-59
2022/07/01 12:28:33;;;;;;;2.78;0.50;;;21.70;99.90;;;;;;7333125;32;20157;-58
2022/07/01 12:32:45;;;;;;;3.25;0.60;;;22.00;99.90;;;;;;7332822;32;20128;-62
2022/07/01 12:36:49;;;;;;;3.97;0.60;;;22.70;99.90;;;;;;7336148;32;20668;-61
2022/07/01 12:40:51;;;;;;;2.35;0.55;;;23.00;99.90;;;;;;7338085;32;20261;-61
2022/07/01 12:44:57;;;;;;;1.60;0.50;;;23.20;98.30;;;;;;7336650;32;20164;-61
2022/07/01 12:48:59;;;;;;;1.17;0.40;;;22.60;96.50;;;;;;7339389;32;20115;-61
2022/07/01 12:53:12;;;;;;;2.17;0.50;;;22.30;99.50;;;;;;7337946;32;20258;-61
2022/07/01 12:57:14;;;;;;;2.92;0.57;;;21.70;99.40;;;;;;7338860;32;20141;-61
2022/07/01 13:01:16;;;;;;;2.40;0.50;;;21.10;99.90;;;;;;7337301;32;20578;-61
2022/07/01 13:05:18;;;;;;;3.75;0.57;;;21.30;99.90;;;;;;7336509;32;20137;-61
2022/07/01 13:09:20;;;;;;;2.90;0.43;;;22.00;99.90;;;;;;7340612;32;20669;-61
2022/07/01 13:13:23;;;;;;;5.65;0.60;;;22.70;99.90;;;;;;7338654;32;20918;-62
2022/07/01 13:17:26;;;;;;;3.10;0.60;;;22.10;99.00;;;;;;7339349;32;20103;-61
2022/07/01 13:21:29;;;;;;;2.00;0.57;;;21.90;99.90;;;;;;7336245;32;20228;-62
2022/07/01 13:25:31;;;;;;;1.90;0.50;;;22.40;99.10;;;;;;7334785;32;20654;-62
2022/07/01 13:29:33;;;;;;;2.05;0.40;;;23.40;96.30;;;;;;7338175;32;20282;-61
2022/07/01 13:33:35;;;;;;;3.97;0.70;;;23.60;93.60;;;;;;7339532;32;20150;-62
2022/07/01 13:37:38;;;;;;;2.33;0.57;;;22.90;92.70;;;;;;7339559;32;20131;-61
2022/07/01 13:41:39;;;;;;;1.85;0.68;;;22.00;94.10;;;;;;7335309;32;20266;-61
2022/07/01 13:45:41;;;;;;;2.55;0.60;;;22.60;98.30;;;;;;7330018;32;20238;-61
2022/07/01 13:49:43;;;;;;;3.33;0.70;;;23.10;95.50;;;;;;7336203;32;20157;-61
2022/07/01 13:53:52;;;;;;;2.25;0.50;;;22.40;95.30;;;;;;7338615;32;20146;-61
2022/07/01 13:57:54;;;;;;;1.42;0.60;;;22.30;99.30;;;;;;7336238;32;20115;-61
2022/07/01 14:01:57;;;;;;;3.05;0.70;;;22.10;97.20;;;;;;7334213;32;20255;-62
2022/07/01 14:05:59;;;;;;;2.35;0.60;;;22.20;99.90;;;;;;7339812;32;20164;-59
2022/07/01 14:10:01;;;;;;;2.33;0.22;;;22.70;97.70;;;;;;7335246;32;20704;-59
2022/07/01 14:14:04;;;;;;;2.58;0.43;;;23.20;91.60;;;;;;7335554;32;20960;-59
2022/07/01 14:18:05;;;;;;;1.67;0.30;;;23.20;91.70;;;;;;7341967;32;20205;-58
2022/07/01 14:22:07;;;;;;;3.97;0.50;;;22.50;91.40;;;;;;7341472;32;20625;-57
2022/07/01 14:26:09;;;;;;;4.40;0.70;;;21.80;95.00;;;;;;7339228;32;20141;-57
2022/07/01 14:30:11;;;;;;;3.00;0.55;;;21.90;95.20;;;;;;7333664;32;20272;-58
2022/07/01 14:34:13;;;;;;;2.58;0.68;;;22.20;95.30;;;;;;7336302;32;20812;-58
2022/07/01 14:38:15;;;;;;;1.83;0.50;;;22.60;94.60;;;;;;7334302;32;20735;-59
2022/07/01 14:42:17;;;;;;;2.50;0.60;;;22.20;96.70;;;;;;7337267;32;20183;-58
2022/07/01 14:46:18;;;;;;;6.30;1.05;;;21.60;96.80;;;;;;7340443;32;20678;-59
2022/07/01 14:50:20;;;;;;;5.72;1.80;;;21.40;98.90;;;;;;7341305;32;20241;-62
2022/07/01 14:54:22;;;;;;;3.15;0.50;;;21.20;99.50;;;;;;7338465;32;20193;-61
2022/07/01 14:58:24;;;;;;;2.78;0.50;;;21.80;99.90;;;;;;7340214;32;20107;-63
2022/07/01 15:02:28;;;;;;;3.80;0.60;;;21.80;97.70;;;;;;7344798;32;20111;-61
2022/07/01 15:06:29;;;;;;;3.53;0.50;;;21.70;98.10;;;;;;7337633;32;20135;-61
2022/07/01 15:10:31;;;;;;;3.10;0.47;;;21.90;99.40;;;;;;7328532;32;20131;-63
2022/07/01 15:14:33;;;;;;;2.28;0.60;;;22.30;95.90;;;;;;7337214;32;20207;-66
2022/07/01 15:18:35;;;;;;;2.37;0.40;;;22.10;96.90;;;;;;7336503;32;20544;-62
2022/07/01 15:22:37;;;;;;;1.50;0.50;;;22.40;97.10;;;;;;7342535;32;20175;-62
2022/07/01 15:26:39;;;;;;;3.08;0.60;;;22.90;92.90;;;;;;7342064;32;20141;-61
2022/07/01 15:30:41;;;;;;;1.50;0.40;;;22.70;93.20;;;;;;7335587;32;21470;-62
2022/07/01 15:34:43;;;;;;;4.05;0.60;;;22.70;92.60;;;;;;7342076;32;20120;-63
2022/07/01 15:38:45;;;;;;;1.87;0.50;;;22.60;94.70;;;;;;7338591;32;20146;-62
2022/07/01 15:42:46;;;;;;;1.70;0.50;;;22.30;96.50;;;;;;7342553;32;20123;-61
2022/07/01 15:46:48;;;;;;;2.45;0.40;;;22.30;95.40;;;;;;7349157;32;20127;-62
2022/07/01 15:50:51;;;;;;;3.37;0.40;;;22.10;95.60;;;;;;7345153;32;20539;-61
2022/07/01 15:54:53;;;;;;;1.98;0.57;;;22.20;94.70;;;;;;7338471;32;20294;-62
2022/07/01 15:58:56;;;;;;;2.45;0.50;;;21.90;95.40;;;;;;7346851;32;20145;-62
2022/07/01 16:03:13;;;;;;;1.33;0.35;;;21.70;98.40;;;;;;7346016;32;20130;-61
2022/07/01 16:07:17;;;;;;;;;;;21.80;94.10;;;;;;7337185;32;20245;-61
2022/07/01 16:11:21;;;;;;;2.12;0.60;;;21.80;95.20;;;;;;7342251;32;20011;-62
2022/07/01 16:15:25;;;;;;;2.75;0.40;;;21.90;96.40;;;;;;7341495;32;20135;-61
2022/07/01 16:19:30;;;;;;;3.50;0.73;;;21.70;96.70;;;;;;7346262;32;20214;-59
2022/07/01 16:23:33;;;;;;;1.17;0.65;;;21.90;95.60;;;;;;7341510;32;20255;-58
2022/07/01 16:27:36;;;;;;;3.65;0.60;;;21.80;94.10;;;;;;7343079;32;20276;-58
2022/07/01 16:31:39;;;;;;;2.28;0.50;;;21.50;98.10;;;;;;7342234;32;20183;-62
2022/07/01 16:35:46;;;;;;;2.83;0.40;;;21.50;96.90;;;;;;7337128;32;20266;-63
2022/07/01 16:39:55;;;;;;;4.97;0.80;;;21.50;96.80;;;;;;7338746;32;20194;-62
2022/07/01 16:43:59;;;;;;;0.75;0.40;;;21.60;96.90;;;;;;7340436;32;20917;-62
2022/07/01 16:48:03;;;;;;;1.95;0.32;;;21.60;94.90;;;;;;7333075;32;20283;-62
2022/07/01 16:52:10;;;;;;;2.95;0.47;;;21.50;95.00;;;;;;7345427;32;20701;-62
2022/07/01 16:56:26;;;;;;;2.83;0.37;;;21.40;96.50;;;;;;7335403;32;20257;-62
2022/07/01 17:00:28;;;;;;;1.45;0.40;;;21.20;93.90;;;;;;7340740;32;20335;-62
2022/07/01 17:04:31;;;;;;;1.87;0.40;;;21.10;95.10;;;;;;7333764;32;20182;-62
2022/07/01 17:08:36;;;;;;;2.15;0.98;;;21.20;94.90;;;;;;7339002;32;20277;-61
2022/07/01 17:12:43;;;;;;;1.73;0.40;;;21.40;93.80;;;;;;7336454;32;20193;-61
2022/07/01 17:16:45;;;;;;;1.33;0.30;;;21.20;94.00;;;;;;7335901;32;20522;-62
2022/07/01 17:20:49;;;;;;;2.05;0.50;;;21.40;93.90;;;;;;7340949;32;20290;-61
2022/07/01 17:25:10;;;;;;;1.48;0.40;;;21.40;94.10;;;;;;7340624;32;20158;-62
2022/07/01 17:29:15;;;;;;;1.50;0.55;;;21.30;92.00;;;;;;7346435;32;20226;-61
2022/07/01 17:33:18;;;;;;;1.37;0.43;;;21.00;92.50;;;;;;7335532;32;20192;-62
2022/07/01 17:37:21;;;;;;;3.30;0.70;;;20.70;95.10;;;;;;7347991;32;20131;-63
2022/07/01 17:41:39;;;;;;;2.85;0.35;;;20.70;94.80;;;;;;7338308;32;20433;-65
2022/07/01 17:45:41;;;;;;;3.65;0.75;;;20.80;95.30;;;;;;7335384;32;20115;-64
2022/07/01 17:49:45;;;;;;;2.42;0.40;;;20.80;94.90;;;;;;7337096;32;20514;-65
2022/07/01 17:53:54;;;;;;;1.00;0.47;;;20.70;95.70;;;;;;7343023;32;20128;-61
2022/07/01 17:57:59;;;;;;;1.65;0.85;;;20.80;94.20;;;;;;7333877;32;20323;-61
2022/07/01 18:02:03;;;;;;;0.98;0.70;;;20.70;95.50;;;;;;7337759;32;20603;-62
2022/07/01 18:06:08;;;;;;;2.33;0.77;;;20.60;94.70;;;;;;7339293;32;20231;-62
2022/07/01 18:10:10;;;;;;;1.60;0.60;;;20.50;96.10;;;;;;7339726;32;20225;-62
2022/07/01 18:14:37;;;;;;;4.28;0.80;;;20.60;95.00;;;;;;7339847;32;20221;-63
2022/07/01 18:18:50;;;;;;;3.50;0.70;;;20.50;95.50;;;;;;7348276;32;20496;-61
2022/07/01 18:23:07;;;;;;;1.70;0.50;;;20.40;95.90;;;;;;7342385;32;20214;-64
2022/07/01 18:27:10;;;;;;;1.55;0.70;;;20.30;95.50;;;;;;7344052;32;20187;-65
2022/07/01 18:31:14;;;;;;;2.15;0.80;;;20.10;97.00;;;;;;7345671;32;20206;-64
2022/07/01 18:35:17;;;;;;;3.85;0.70;;;20.10;96.80;;;;;;7337654;32;20112;-65
2022/07/01 18:39:20;;;;;;;2.03;1.05;;;20.00;98.00;;;;;;7343621;32;20186;-64
2022/07/01 18:43:22;;;;;;;1.90;0.65;;;19.90;98.60;;;;;;7341694;32;20718;-66
2022/07/01 18:47:23;;;;;;;3.65;0.68;;;19.80;98.80;;;;;;7347996;32;20119;-67
2022/07/01 18:51:25;;;;;;;3.72;0.60;;;19.80;98.30;;;;;;7341856;32;20115;-66
2022/07/01 18:55:28;;;;;;;1.85;0.65;;;19.70;99.70;;;;;;7348533;32;20208;-68
2022/07/01 18:59:35;;;;;;;2.92;1.30;;;19.50;99.90;;;;;;7347396;32;20179;-66
2022/07/01 19:03:37;;;;;;;2.72;0.90;;;19.50;99.90;;;;;;7349330;32;20254;-67
2022/07/01 19:07:39;;;;;;;3.90;1.52;;;19.40;99.90;;;;;;7347051;32;20187;-67
2022/07/01 19:11:41;;;;;;;1.87;0.60;;;19.20;99.90;;;;;;7344548;32;20381;-67
2022/07/01 19:15:43;;;;;;;2.12;0.82;;;19.00;99.90;;;;;;7345061;32;20212;-66
2022/07/01 19:19:45;;;;;;;1.73;0.60;;;18.80;99.90;;;;;;7349814;32;20144;-67
2022/07/01 19:23:47;;;;;;;3.12;0.90;;;18.60;99.90;;;;;;7343419;32;20103;-65
2022/07/01 19:27:49;;;;;;;2.22;0.60;;;18.50;99.90;;;;;;7347636;32;21059;-67
2022/07/01 19:31:51;;;;;;;2.50;1.00;;;18.20;99.90;;;;;;7337579;32;20239;-65
2022/07/01 19:35:53;;;;;;;2.45;1.12;;;18.00;99.90;;;;;;7336765;32;20229;-67
2022/07/01 19:39:54;;;;;;;9.20;5.62;;;17.80;99.90;;;;;;7345967;32;20104;-65
2022/07/01 19:43:58;;;;;;;4.28;1.40;;;17.60;99.90;;;;;;7340059;32;20135;-66
2022/07/01 19:48:00;;;;;;;3.78;1.17;;;17.30;99.90;;;;;;7339366;32;20255;-67
2022/07/01 19:52:02;;;;;;;8.07;1.17;;;17.10;99.90;;;;;;7337879;32;20133;-67
2022/07/01 19:56:04;;;;;;;4.25;1.20;;;17.00;99.90;;;;;;7339798;32;20330;-66
2022/07/01 20:00:07;;;;;;;3.70;1.30;;;16.80;99.90;;;;;;7341949;32;20111;-68
2022/07/01 20:04:09;;;;;;;4.55;1.75;;;16.70;99.90;;;;;;7343875;32;20119;-64
2022/07/01 20:08:11;;;;;;;3.70;0.90;;;16.40;99.90;;;;;;7345625;32;20141;-63
2022/07/01 20:12:12;;;;;;;3.28;1.30;;;16.20;99.90;;;;;;7345506;32;20270;-65
2022/07/01 20:16:14;;;;;;;2.70;0.90;;;16.00;99.90;;;;;;7346124;32;20240;-66
2022/07/01 20:20:16;;;;;;;5.22;1.00;;;15.90;99.90;;;;;;7341592;32;21661;-64
2022/07/01 20:24:18;;;;;;;4.03;1.00;;;15.70;99.90;;;;;;7340742;32;20756;-64
2022/07/01 20:28:20;;;;;;;3.75;1.10;;;15.50;99.90;;;;;;7341791;32;20103;-66
2022/07/01 20:32:23;;;;;;;6.70;1.35;;;15.40;99.90;;;;;;7341066;32;20224;-65
2022/07/01 20:36:25;;;;;;;5.03;1.10;;;15.20;99.90;;;;;;7343925;32;20103;-64
2022/07/01 20:40:26;;;;;;;2.05;1.02;;;15.00;99.90;;;;;;7344330;32;20211;-63
2022/07/01 20:44:28;;;;;;;11.23;3.00;;;14.90;99.90;;;;;;7344415;32;20190;-64
2022/07/01 20:48:30;;;;;;;3.20;1.35;;;14.80;99.90;;;;;;7340638;32;20819;-64
2022/07/01 20:52:32;;;;;;;3.03;1.20;;;14.70;99.90;;;;;;7343476;32;20119;-65
2022/07/01 20:56:34;;;;;;;5.47;1.30;;;14.60;99.90;;;;;;7336801;32;20256;-64
2022/07/01 21:00:40;;;;;;;3.00;1.20;;;14.40;99.90;;;;;;7338208;32;20104;-64
2022/07/01 21:04:42;;;;;;;3.28;1.15;;;14.30;99.90;;;;;;7338253;32;20135;-64
2022/07/01 21:08:44;;;;;;;4.50;1.30;;;14.20;99.90;;;;;;7340320;32;20111;-64
2022/07/01 21:12:46;;;;;;;3.95;1.40;;;14.10;99.90;;;;;;7342442;32;20202;-64
2022/07/01 21:16:48;;;;;;;9.88;1.95;;;14.00;99.90;;;;;;7341503;32;20115;-65
2022/07/01 21:20:49;;;;;;;5.10;1.70;;;13.90;99.90;;;;;;7332597;32;20107;-64